createdAt,value
2018-09-06T00:00:32.798Z,33.00
2018-09-06T00:05:26.137Z,26.82
2018-09-06T00:10:19.570Z,27.58
2018-09-06T00:15:12.840Z,26.33
2018-09-06T00:20:06.155Z,23.27
2018-09-06T00:24:59.582Z,25.08
2018-09-06T00:29:52.867Z,25.00
2018-09-06T00:34:46.904Z,27.50
2018-09-06T00:39:40.233Z,26.42
2018-09-06T00:44:33.831Z,31.05
2018-09-06T00:49:27.201Z,28.12
2018-09-06T00:54:20.541Z,24.65
2018-09-06T00:59:13.954Z,27.98
2018-09-06T01:04:07.351Z,24.72
2018-09-06T01:09:00.610Z,25.10
2018-09-06T01:13:53.889Z,23.80
2018-09-06T01:18:47.195Z,26.87
2018-09-06T01:23:40.522Z,27.60
2018-09-06T01:28:33.853Z,24.82
2018-09-06T01:33:27.146Z,25.95
2018-09-06T01:38:20.460Z,26.75
2018-09-06T01:43:13.746Z,32.00
2018-09-06T01:48:07.107Z,38.45
2018-09-06T01:53:00.450Z,39.08
2018-09-06T01:57:53.717Z,38.55
2018-09-06T02:02:47.275Z,35.28
2018-09-06T02:07:40.541Z,35.28
2018-09-06T02:12:33.909Z,32.67
2018-09-06T02:17:27.155Z,33.35
2018-09-06T02:22:20.401Z,32.17
2018-09-06T02:27:13.699Z,33.92
2018-09-06T02:32:07.157Z,33.67
2018-09-06T02:37:00.521Z,36.03
2018-09-06T02:41:53.809Z,40.83
2018-09-06T02:46:47.116Z,41.53
2018-09-06T02:51:40.417Z,42.30
2018-09-06T02:56:33.737Z,41.80
2018-09-06T03:01:27.054Z,44.30
2018-09-06T03:06:20.345Z,47.13
2018-09-06T03:11:17.901Z,42.45
2018-09-06T03:16:11.262Z,38.05
2018-09-06T03:21:05.698Z,33.60
2018-09-06T03:25:59.627Z,39.92
2018-09-06T03:30:52.963Z,40.28
2018-09-06T03:35:46.325Z,37.90
2018-09-06T03:40:39.677Z,37.03
2018-09-06T03:45:32.990Z,36.45
2018-09-06T03:50:26.319Z,39.08
2018-09-06T03:55:19.672Z,37.45
2018-09-06T04:00:13.081Z,38.50
2018-09-06T04:05:06.474Z,38.70
2018-09-06T04:09:59.777Z,36.15
2018-09-06T04:14:53.063Z,38.75
2018-09-06T04:19:46.427Z,44.08
2018-09-06T04:24:39.745Z,39.63
2018-09-06T04:29:33.515Z,39.45
2018-09-06T04:34:26.823Z,43.78
2018-09-06T04:39:20.080Z,39.48
2018-09-06T04:44:13.418Z,42.75
2018-09-06T04:49:06.701Z,41.83
2018-09-06T04:54:00.005Z,44.50
2018-09-06T04:58:53.413Z,42.40
2018-09-06T05:03:46.707Z,42.08
2018-09-06T05:08:40.010Z,45.25
2018-09-06T05:13:33.391Z,46.40
2018-09-06T05:18:26.743Z,50.33
2018-09-06T05:23:20.083Z,43.75
2018-09-06T05:28:20.203Z,43.70
2018-09-06T05:33:13.537Z,43.65
2018-09-06T05:38:07.544Z,45.15
2018-09-06T05:43:00.877Z,41.75
2018-09-06T05:47:57.817Z,40.60
2018-09-06T05:52:52.291Z,41.88
2018-09-06T05:57:45.602Z,43.50
2018-09-06T06:02:38.980Z,48.45
2018-09-06T06:07:49.309Z,49.93
2018-09-06T06:12:42.625Z,39.50
2018-09-06T06:17:36.575Z,43.00
2018-09-06T06:22:29.936Z,40.48
2018-09-06T06:27:23.325Z,42.08
2018-09-06T06:32:17.182Z,38.45
2018-09-06T06:37:10.495Z,41.58
2018-09-06T06:42:03.873Z,40.23
2018-09-06T06:46:57.234Z,39.15
2018-09-06T06:51:50.566Z,35.90
2018-09-06T06:56:43.883Z,36.38
2018-09-06T07:01:37.535Z,34.13
2018-09-06T07:06:30.824Z,41.70
2018-09-06T07:11:24.173Z,36.00
2018-09-06T07:16:17.435Z,36.68
2018-09-06T07:21:10.957Z,34.88
2018-09-06T07:26:04.301Z,36.17
2018-09-06T07:30:59.111Z,35.98
2018-09-06T07:35:52.430Z,36.25
2018-09-06T07:40:45.756Z,35.25
2018-09-06T07:45:39.206Z,35.83
2018-09-06T07:50:32.545Z,34.55
2018-09-06T07:55:25.929Z,32.98
2018-09-06T08:00:19.301Z,33.48
2018-09-06T08:05:14.217Z,32.08
2018-09-06T08:10:07.603Z,34.00
2018-09-06T08:15:00.985Z,33.58
2018-09-06T08:19:55.880Z,41.02
2018-09-06T08:24:49.307Z,35.28
2018-09-06T08:29:42.797Z,36.65
2018-09-06T08:34:36.188Z,39.83
2018-09-06T08:39:29.542Z,40.67
2018-09-06T08:44:23.422Z,36.93
2018-09-06T08:49:16.779Z,40.17
2018-09-06T08:54:10.158Z,40.70
2018-09-06T08:59:03.582Z,40.15
2018-09-06T09:03:57.241Z,39.40
2018-09-06T09:08:51.192Z,42.40
2018-09-06T09:13:44.610Z,44.38
2018-09-06T09:18:38.143Z,46.47
2018-09-06T09:23:31.588Z,39.25
2018-09-06T09:28:24.927Z,46.65
2018-09-06T09:33:18.272Z,41.05
2018-09-06T09:38:11.770Z,44.05
2018-09-06T09:43:05.657Z,45.65
2018-09-06T09:48:00.045Z,45.80
2018-09-06T09:52:53.504Z,43.90
2018-09-06T09:57:46.888Z,42.20
2018-09-06T10:02:46.064Z,50.85
2018-09-06T10:07:45.250Z,54.65
2018-09-06T10:12:39.645Z,49.38
2018-09-06T10:17:34.257Z,51.08
2018-09-06T10:22:27.629Z,52.13
2018-09-06T10:27:21.552Z,51.48
2018-09-06T10:32:14.974Z,45.38
2018-09-06T10:37:08.892Z,44.67
2018-09-06T10:42:02.307Z,41.92
2018-09-06T10:46:55.737Z,37.60
2018-09-06T10:51:49.117Z,41.25
2018-09-06T10:56:43.111Z,43.63
2018-09-06T11:01:36.569Z,38.42
2018-09-06T11:06:29.966Z,39.53
2018-09-06T11:11:23.284Z,39.08
2018-09-06T11:16:17.916Z,37.10
2018-09-06T11:21:11.358Z,38.35
2018-09-06T11:26:04.762Z,36.60
2018-09-06T11:30:58.073Z,34.95
2018-09-06T11:35:51.554Z,34.27
2018-09-06T11:40:46.460Z,35.28
2018-09-06T11:45:40.425Z,34.03
2018-09-06T11:50:33.765Z,30.23
2018-09-06T11:55:27.064Z,26.27
2018-09-06T12:00:20.521Z,24.07
2018-09-06T12:05:13.857Z,24.00
2018-09-06T12:10:07.357Z,26.80
2018-09-06T12:15:00.771Z,31.52
2018-09-06T12:19:54.142Z,33.85
2018-09-06T12:24:47.610Z,33.05
2018-09-06T12:29:41.094Z,34.85
2018-09-06T12:34:34.399Z,32.28
2018-09-06T12:39:28.031Z,34.85
2018-09-06T12:44:21.366Z,32.05
2018-09-06T12:49:14.703Z,32.45
2018-09-06T12:54:08.065Z,29.48
2018-09-06T12:59:01.475Z,30.50
2018-09-06T13:03:54.867Z,28.87
2018-09-06T13:08:48.335Z,29.45
2018-09-06T13:13:41.997Z,28.52
2018-09-06T13:18:35.553Z,30.02
2018-09-06T13:23:28.810Z,28.27
2018-09-06T13:28:22.228Z,29.52
2018-09-06T13:33:15.620Z,28.62
2018-09-06T13:38:09.181Z,30.52
2018-09-06T13:43:02.564Z,30.90
2018-09-06T13:47:55.897Z,32.78
2018-09-06T13:52:49.240Z,32.28
2018-09-06T13:57:42.698Z,36.90
2018-09-06T14:02:36.792Z,32.30
2018-09-06T14:07:30.136Z,34.75
2018-09-06T14:12:23.814Z,34.83
2018-09-06T14:17:17.808Z,32.78
2018-09-06T14:22:11.164Z,23.25
2018-09-06T14:27:04.772Z,28.83
2018-09-06T14:31:58.376Z,35.60
2018-09-06T14:37:06.384Z,30.62
2018-09-06T14:42:00.881Z,29.00
2018-09-06T14:46:54.552Z,28.30
2018-09-06T14:51:48.721Z,29.67
2018-09-06T14:56:43.252Z,29.18
2018-09-06T15:01:36.803Z,27.85
2018-09-06T15:06:30.721Z,29.40
2018-09-06T15:11:24.132Z,33.13
2018-09-06T15:16:18.591Z,32.00
2018-09-06T15:21:11.911Z,29.72
2018-09-06T15:26:05.246Z,35.63
2018-09-06T15:30:58.590Z,31.20
2018-09-06T15:35:52.020Z,37.03
2018-09-06T15:40:45.331Z,35.83
2018-09-06T15:45:38.706Z,33.28
2018-09-06T15:50:32.074Z,29.95
2018-09-06T15:55:25.419Z,32.08
2018-09-06T16:00:19.020Z,32.03
2018-09-06T16:05:12.389Z,32.58
2018-09-06T16:10:06.423Z,30.82
2018-09-06T16:14:59.791Z,32.95
2018-09-06T16:19:53.150Z,32.30
2018-09-06T16:24:46.632Z,30.08
2018-09-06T16:29:40.986Z,33.75
2018-09-06T16:34:34.346Z,30.72
2018-09-06T16:39:27.669Z,28.42
2018-09-06T16:44:20.984Z,28.98
2018-09-06T16:49:14.344Z,30.95
2018-09-06T16:54:07.637Z,28.35
2018-09-06T16:59:00.975Z,34.35
2018-09-06T17:03:54.350Z,31.05
2018-09-06T17:08:47.639Z,31.80
2018-09-06T17:13:41.039Z,33.15
2018-09-06T17:18:34.365Z,34.70
2018-09-06T17:23:27.716Z,32.10
2018-09-06T17:28:21.195Z,28.57
2018-09-06T17:33:14.617Z,31.35
2018-09-06T17:38:08.477Z,33.00
2018-09-06T17:43:01.839Z,31.07
2018-09-06T17:47:55.221Z,32.85
2018-09-06T17:52:48.620Z,36.20
2018-09-06T17:57:41.935Z,33.30
2018-09-06T18:02:35.330Z,35.60
2018-09-06T18:07:28.704Z,33.90
2018-09-06T18:12:22.100Z,37.45
2018-09-06T18:17:16.540Z,32.45
2018-09-06T18:22:09.861Z,31.90
2018-09-06T18:27:03.253Z,38.03
2018-09-06T18:31:56.852Z,35.27
2018-09-06T18:36:50.144Z,36.25
2018-09-06T18:41:43.804Z,39.75
2018-09-06T18:46:37.879Z,35.97
2018-09-06T18:51:31.287Z,35.45
2018-09-06T18:56:24.932Z,30.90
2018-09-06T19:01:18.491Z,30.75
2018-09-06T19:06:12.303Z,27.05
2018-09-06T19:11:05.985Z,29.63
2018-09-06T19:16:00.395Z,16.95
2018-09-06T19:20:55.613Z,13.15
2018-09-06T19:25:49.001Z,11.00
2018-09-06T19:30:42.328Z,11.78
2018-09-06T19:35:35.979Z,11.95
2018-09-06T19:40:29.371Z,14.45
2018-09-06T19:45:22.832Z,12.47
2018-09-06T19:50:16.184Z,12.33
2018-09-06T19:55:09.477Z,13.28
2018-09-06T20:00:04.252Z,10.97
2018-09-06T20:04:58.483Z,11.38
2018-09-06T20:09:52.107Z,11.15
2018-09-06T20:14:45.503Z,11.93
2018-09-06T20:19:38.923Z,10.82
2018-09-06T20:24:32.303Z,10.25
2018-09-06T20:29:25.893Z,11.15
2018-09-06T20:34:19.268Z,12.80
2018-09-06T20:39:13.521Z,12.88
2018-09-06T20:44:06.933Z,12.47
2018-09-06T20:49:00.323Z,9.60
2018-09-06T20:53:53.977Z,9.43
2018-09-06T20:58:47.448Z,8.70
2018-09-06T21:03:41.902Z,8.40
2018-09-06T21:08:35.337Z,8.13
2018-09-06T21:13:29.316Z,8.63
2018-09-06T21:18:22.614Z,7.37
2018-09-06T21:23:15.949Z,7.85
2018-09-06T21:28:09.338Z,7.67
2018-09-06T21:33:02.661Z,8.53
2018-09-06T21:37:55.995Z,8.40
2018-09-06T21:42:49.303Z,7.53
2018-09-06T21:47:42.586Z,7.17
2018-09-06T21:52:35.896Z,7.15
2018-09-06T21:57:29.233Z,7.03
2018-09-06T22:02:28.073Z,7.42
2018-09-06T22:07:21.422Z,7.00
2018-09-06T22:12:17.699Z,7.28
2018-09-06T22:17:11.000Z,10.45
2018-09-06T22:22:04.388Z,8.45
2018-09-06T22:26:57.737Z,8.18
2018-09-06T22:31:51.117Z,8.58
2018-09-06T22:36:44.444Z,7.90
2018-09-06T22:41:37.806Z,9.15
2018-09-06T22:46:31.134Z,8.05
2018-09-06T22:51:24.427Z,7.87
2018-09-06T22:56:17.783Z,10.72
2018-09-06T23:01:11.121Z,12.65
2018-09-06T23:06:04.665Z,9.23
2018-09-06T23:10:58.050Z,7.85
2018-09-06T23:15:51.562Z,8.45
2018-09-06T23:20:44.881Z,7.58
2018-09-06T23:25:38.814Z,8.53
2018-09-06T23:30:33.275Z,8.00
2018-09-06T23:35:26.605Z,9.08
2018-09-06T23:40:19.930Z,8.88
2018-09-06T23:45:13.249Z,7.97
2018-09-06T23:50:06.609Z,9.95
2018-09-06T23:54:59.858Z,9.90
2018-09-06T23:59:53.118Z,9.50
